createdAt,value
2018-12-29T00:00:34.143Z,32.60
2018-12-29T00:03:00.090Z,32.60
2018-12-29T00:05:26.076Z,32.70
2018-12-29T00:07:52.027Z,32.80
2018-12-29T00:10:17.987Z,32.90
2018-12-29T00:12:44.027Z,32.90
2018-12-29T00:15:10.011Z,32.90
2018-12-29T00:17:35.961Z,32.60
2018-12-29T00:20:01.927Z,32.60
2018-12-29T00:22:27.869Z,32.60
2018-12-29T00:24:53.829Z,32.50
2018-12-29T00:27:19.799Z,32.50
2018-12-29T00:29:45.727Z,32.30
2018-12-29T00:32:11.683Z,32.30
2018-12-29T00:34:37.631Z,32.30
2018-12-29T00:37:03.601Z,32.40
2018-12-29T00:39:29.577Z,32.20
2018-12-29T00:41:55.629Z,32.30
2018-12-29T00:44:21.572Z,32.30
2018-12-29T00:46:47.519Z,32.40
2018-12-29T00:49:13.464Z,32.30
2018-12-29T00:51:39.442Z,32.30
2018-12-29T00:54:05.762Z,32.30
2018-12-29T00:56:31.802Z,32.30
2018-12-29T00:58:57.751Z,32.30
2018-12-29T01:01:23.701Z,32.30
2018-12-29T01:03:49.649Z,32.30
2018-12-29T01:06:15.594Z,32.30
2018-12-29T01:08:41.547Z,32.40
2018-12-29T01:11:07.492Z,32.50
2018-12-29T01:13:33.458Z,32.50
2018-12-29T01:15:59.415Z,32.50
2018-12-29T01:18:25.366Z,32.50
2018-12-29T01:20:51.412Z,32.50
2018-12-29T01:23:17.359Z,32.50
2018-12-29T01:25:43.309Z,32.60
2018-12-29T01:28:09.249Z,32.60
2018-12-29T01:30:35.217Z,32.60
2018-12-29T01:33:01.265Z,32.50
2018-12-29T01:35:27.223Z,32.60
2018-12-29T01:37:53.167Z,32.60
2018-12-29T01:40:19.121Z,32.50
2018-12-29T01:42:45.076Z,32.50
2018-12-29T01:45:17.288Z,32.40
2018-12-29T01:47:38.881Z,32.40
2018-12-29T01:50:04.830Z,32.40
2018-12-29T01:52:30.779Z,32.40
2018-12-29T01:54:56.733Z,32.20
2018-12-29T01:57:23.613Z,32.30
2018-12-29T01:59:49.658Z,32.10
2018-12-29T02:02:15.605Z,32.10
2018-12-29T02:04:41.557Z,32.10
2018-12-29T02:07:07.515Z,32.00
2018-12-29T02:09:33.465Z,32.00
2018-12-29T02:11:59.449Z,31.90
2018-12-29T02:14:25.399Z,31.80
2018-12-29T02:16:51.371Z,31.90
2018-12-29T02:19:17.425Z,31.90
2018-12-29T02:21:43.341Z,31.80
2018-12-29T02:24:09.306Z,31.80
2018-12-29T02:26:35.284Z,31.80
2018-12-29T02:29:01.238Z,31.80
2018-12-29T02:31:27.163Z,31.90
2018-12-29T02:33:53.136Z,32.00
2018-12-29T02:36:19.086Z,32.00
2018-12-29T02:38:45.065Z,32.00
2018-12-29T02:41:11.114Z,32.10
2018-12-29T02:43:37.200Z,32.10
2018-12-29T02:46:03.161Z,32.20
2018-12-29T02:48:29.122Z,32.20
2018-12-29T02:50:55.152Z,32.30
2018-12-29T02:53:21.305Z,32.30
2018-12-29T02:55:47.266Z,32.30
2018-12-29T02:58:13.192Z,32.30
2018-12-29T03:00:39.148Z,32.30
2018-12-29T03:03:05.096Z,32.30
2018-12-29T03:05:31.046Z,33.00
2018-12-29T03:07:56.988Z,32.30
2018-12-29T03:10:22.935Z,32.40
2018-12-29T03:12:48.881Z,32.30
2018-12-29T03:15:14.855Z,32.40
2018-12-29T03:17:40.777Z,32.30
2018-12-29T03:20:06.708Z,32.30
2018-12-29T03:22:32.692Z,32.40
2018-12-29T03:24:58.746Z,32.40
2018-12-29T03:27:24.691Z,32.40
2018-12-29T03:29:50.634Z,32.30
2018-12-29T03:32:16.601Z,32.20
2018-12-29T03:34:42.660Z,32.10
2018-12-29T03:37:09.463Z,32.00
2018-12-29T03:39:35.436Z,31.90
2018-12-29T03:42:01.507Z,31.90
2018-12-29T03:44:27.556Z,31.80
2018-12-29T03:46:53.508Z,31.90
2018-12-29T03:49:19.461Z,31.80
2018-12-29T03:51:45.437Z,31.70
2018-12-29T03:54:11.485Z,31.70
2018-12-29T03:56:37.538Z,31.70
2018-12-29T03:59:03.575Z,31.70
2018-12-29T04:01:29.514Z,31.80
2018-12-29T04:03:55.484Z,31.70
2018-12-29T04:06:21.453Z,31.70
2018-12-29T04:08:47.392Z,31.70
2018-12-29T04:11:13.346Z,31.60
2018-12-29T04:13:39.293Z,31.70
2018-12-29T04:16:05.250Z,31.50
2018-12-29T04:18:31.180Z,31.50
2018-12-29T04:20:57.335Z,31.50
2018-12-29T04:23:23.293Z,31.50
2018-12-29T04:25:49.266Z,31.50
2018-12-29T04:28:15.306Z,31.40
2018-12-29T04:30:41.254Z,31.50
2018-12-29T04:33:07.208Z,31.50
2018-12-29T04:35:33.166Z,31.60
2018-12-29T04:37:59.122Z,31.60
2018-12-29T04:40:25.078Z,31.70
2018-12-29T04:42:51.018Z,31.60
2018-12-29T04:45:16.982Z,31.70
2018-12-29T04:47:42.936Z,31.70
2018-12-29T04:50:08.882Z,31.90
2018-12-29T04:52:34.942Z,31.80
2018-12-29T04:55:00.988Z,31.80
2018-12-29T04:57:26.937Z,31.80
2018-12-29T04:59:52.866Z,31.80
2018-12-29T05:02:18.837Z,31.80
2018-12-29T05:04:44.780Z,31.90
2018-12-29T05:07:11.084Z,31.90
2018-12-29T05:09:37.038Z,32.00
2018-12-29T05:12:03.024Z,32.00
2018-12-29T05:14:28.975Z,31.90
2018-12-29T05:16:54.960Z,31.90
2018-12-29T05:19:20.922Z,31.60
2018-12-29T05:21:46.874Z,32.00
2018-12-29T05:24:12.838Z,32.00
2018-12-29T05:26:38.894Z,32.60
2018-12-29T05:29:04.836Z,32.30
2018-12-29T05:31:30.766Z,32.30
2018-12-29T05:33:56.719Z,32.30
2018-12-29T05:36:22.705Z,32.30
2018-12-29T05:38:48.644Z,31.80
2018-12-29T05:41:14.594Z,32.20
2018-12-29T05:43:40.536Z,32.00
2018-12-29T05:46:06.470Z,32.60
2018-12-29T05:48:32.436Z,31.90
2018-12-29T05:50:58.384Z,31.90
2018-12-29T05:53:24.334Z,31.80
2018-12-29T05:55:50.294Z,31.90
2018-12-29T05:58:16.266Z,31.80
2018-12-29T06:00:42.407Z,31.70
2018-12-29T06:03:08.356Z,31.80
2018-12-29T06:05:34.298Z,31.70
2018-12-29T06:08:00.256Z,31.70
2018-12-29T06:10:26.190Z,31.70
2018-12-29T06:12:52.156Z,31.80
2018-12-29T06:15:18.098Z,31.90
2018-12-29T06:17:44.028Z,31.90
2018-12-29T06:20:09.997Z,32.00
2018-12-29T06:22:36.049Z,31.90
2018-12-29T06:25:02.118Z,32.00
2018-12-29T06:27:29.021Z,31.90
2018-12-29T06:29:54.983Z,32.00
2018-12-29T06:32:20.936Z,31.80
2018-12-29T06:34:46.886Z,31.80
2018-12-29T06:37:12.955Z,31.70
2018-12-29T06:39:38.924Z,31.70
2018-12-29T06:42:04.887Z,31.60
2018-12-29T06:44:30.841Z,31.60
2018-12-29T06:46:58.329Z,31.50
2018-12-29T06:49:24.270Z,31.40
2018-12-29T06:51:50.219Z,31.40
2018-12-29T06:54:16.163Z,31.30
2018-12-29T06:56:42.113Z,31.40
2018-12-29T06:59:08.089Z,31.40
2018-12-29T07:01:34.039Z,31.40
2018-12-29T07:03:59.996Z,32.10
2018-12-29T07:06:26.258Z,31.50
2018-12-29T07:08:52.207Z,31.60
2018-12-29T07:11:18.178Z,31.60
2018-12-29T07:13:44.137Z,31.70
2018-12-29T07:16:10.095Z,31.70
2018-12-29T07:18:36.049Z,31.80
2018-12-29T07:21:01.995Z,31.80
2018-12-29T07:23:27.961Z,31.90
2018-12-29T07:25:53.914Z,31.90
2018-12-29T07:28:19.886Z,32.00
2018-12-29T07:30:45.832Z,32.00
2018-12-29T07:33:11.788Z,32.10
2018-12-29T07:35:37.773Z,32.20
2018-12-29T07:38:03.784Z,32.10
2018-12-29T07:40:29.789Z,32.20
2018-12-29T07:42:55.729Z,32.20
2018-12-29T07:45:21.695Z,32.30
2018-12-29T07:47:47.635Z,32.30
2018-12-29T07:50:13.591Z,32.20
2018-12-29T07:52:39.640Z,32.20
2018-12-29T07:55:05.577Z,32.10
2018-12-29T07:57:31.539Z,32.10
2018-12-29T07:59:58.952Z,32.00
2018-12-29T08:02:25.138Z,32.00
2018-12-29T08:04:51.082Z,32.10
2018-12-29T08:07:17.018Z,32.00
2018-12-29T08:09:42.963Z,32.10
2018-12-29T08:12:08.934Z,32.10
2018-12-29T08:14:34.887Z,32.10
2018-12-29T08:17:01.006Z,32.10
2018-12-29T08:19:26.950Z,32.30
2018-12-29T08:21:52.898Z,32.20
2018-12-29T08:24:18.922Z,32.30
2018-12-29T08:26:45.005Z,32.30
2018-12-29T08:29:11.058Z,32.30
2018-12-29T08:31:37.029Z,33.00
2018-12-29T08:34:02.978Z,32.20
2018-12-29T08:36:28.937Z,32.20
2018-12-29T08:38:54.885Z,32.20
2018-12-29T08:41:20.866Z,32.20
2018-12-29T08:43:46.836Z,32.30
2018-12-29T08:46:12.790Z,32.20
2018-12-29T08:48:38.769Z,32.20
2018-12-29T08:51:04.738Z,32.10
2018-12-29T08:53:30.784Z,32.00
2018-12-29T08:55:56.739Z,31.90
2018-12-29T08:58:22.692Z,31.80
2018-12-29T09:00:48.646Z,31.70
2018-12-29T09:03:14.602Z,31.60
2018-12-29T09:05:40.627Z,31.70
2018-12-29T09:08:06.578Z,31.50
2018-12-29T09:10:32.656Z,31.50
2018-12-29T09:12:58.801Z,31.40
2018-12-29T09:15:24.856Z,31.40
2018-12-29T09:17:50.797Z,31.50
2018-12-29T09:20:16.939Z,31.50
2018-12-29T09:22:42.972Z,31.50
2018-12-29T09:25:08.934Z,31.70
2018-12-29T09:27:34.868Z,31.70
2018-12-29T09:30:00.874Z,31.80
2018-12-29T09:32:26.838Z,31.90
2018-12-29T09:34:52.796Z,32.00
2018-12-29T09:37:18.758Z,32.00
2018-12-29T09:39:44.694Z,32.00
2018-12-29T09:42:10.638Z,32.10
2018-12-29T09:44:36.620Z,32.00
2018-12-29T09:47:02.586Z,32.10
2018-12-29T09:49:28.519Z,32.10
2018-12-29T09:51:54.477Z,32.00
2018-12-29T09:54:20.419Z,32.10
2018-12-29T09:56:46.401Z,32.10
2018-12-29T09:59:12.351Z,32.20
2018-12-29T10:01:38.295Z,32.90
2018-12-29T10:04:04.259Z,32.30
2018-12-29T10:06:30.212Z,32.30
2018-12-29T10:08:56.167Z,32.40
2018-12-29T10:11:22.123Z,33.10
2018-12-29T10:13:48.117Z,32.60
2018-12-29T10:16:14.176Z,32.30
2018-12-29T10:18:40.257Z,32.50
2018-12-29T10:21:06.200Z,32.40
2018-12-29T10:23:32.177Z,32.30
2018-12-29T10:25:58.233Z,32.30
2018-12-29T10:28:24.207Z,32.20
2018-12-29T10:30:50.165Z,32.10
2018-12-29T10:33:16.135Z,32.00
2018-12-29T10:35:42.071Z,31.90
2018-12-29T10:38:08.025Z,31.80
2018-12-29T10:40:33.973Z,31.70
2018-12-29T10:42:59.929Z,31.70
2018-12-29T10:45:25.891Z,31.60
2018-12-29T10:47:51.862Z,31.50
2018-12-29T10:50:17.811Z,31.40
2018-12-29T10:52:43.762Z,31.40
2018-12-29T10:55:10.024Z,31.50
2018-12-29T10:57:35.962Z,31.50
2018-12-29T11:00:01.940Z,31.60
2018-12-29T11:02:27.976Z,31.50
2018-12-29T11:04:53.901Z,31.60
2018-12-29T11:07:19.879Z,31.70
2018-12-29T11:09:45.825Z,31.70
2018-12-29T11:12:11.785Z,31.70
2018-12-29T11:14:37.836Z,31.80
2018-12-29T11:17:04.014Z,31.90
2018-12-29T11:19:29.984Z,31.90
2018-12-29T11:21:55.948Z,32.00
2018-12-29T11:24:21.877Z,32.10
2018-12-29T11:26:47.828Z,32.20
2018-12-29T11:29:13.775Z,32.20
2018-12-29T11:31:39.728Z,32.30
2018-12-29T11:34:05.666Z,32.40
2018-12-29T11:36:31.638Z,32.50
2018-12-29T11:38:57.684Z,32.40
2018-12-29T11:41:24.078Z,32.50
2018-12-29T11:43:50.202Z,32.40
2018-12-29T11:46:16.170Z,32.30
2018-12-29T11:48:42.141Z,32.30
2018-12-29T11:51:08.192Z,32.20
2018-12-29T11:53:34.230Z,32.40
2018-12-29T11:56:00.193Z,32.30
2018-12-29T11:58:26.241Z,32.30
2018-12-29T12:00:52.293Z,32.20
2018-12-29T12:03:18.266Z,32.30
2018-12-29T12:05:44.322Z,32.10
2018-12-29T12:08:10.378Z,32.20
2018-12-29T12:10:36.420Z,32.10
2018-12-29T12:13:02.376Z,32.10
2018-12-29T12:15:28.423Z,32.10
2018-12-29T12:17:57.517Z,32.10
2018-12-29T12:20:22.321Z,32.10
2018-12-29T12:22:48.387Z,32.10
2018-12-29T12:25:14.442Z,32.10
2018-12-29T12:27:40.683Z,32.00
2018-12-29T12:30:06.622Z,31.90
2018-12-29T12:32:32.675Z,32.70
2018-12-29T12:34:59.009Z,32.10
2018-12-29T12:37:25.541Z,32.20
2018-12-29T12:39:51.884Z,32.80
2018-12-29T12:42:17.944Z,32.30
2018-12-29T12:44:44.005Z,32.30
2018-12-29T12:47:11.094Z,33.00
2018-12-29T12:49:37.160Z,32.50
2018-12-29T12:52:03.234Z,32.50
2018-12-29T12:54:29.288Z,32.50
2018-12-29T12:56:55.902Z,32.40
2018-12-29T12:59:21.949Z,32.50
2018-12-29T13:01:48.418Z,32.50
2018-12-29T13:04:14.451Z,32.40
2018-12-29T13:06:40.402Z,32.50
2018-12-29T13:09:06.733Z,32.50
2018-12-29T13:11:32.799Z,32.50
2018-12-29T13:13:58.866Z,32.50
2018-12-29T13:16:24.901Z,32.50
2018-12-29T13:18:50.854Z,32.50
2018-12-29T13:21:16.910Z,32.40
2018-12-29T13:23:42.981Z,32.40
2018-12-29T13:26:09.031Z,32.40
2018-12-29T13:28:35.093Z,32.40
2018-12-29T13:31:01.169Z,32.40
2018-12-29T13:33:27.227Z,32.40
2018-12-29T13:35:53.278Z,32.40
2018-12-29T13:38:19.347Z,32.30
2018-12-29T13:40:45.349Z,32.30
2018-12-29T13:43:11.395Z,32.40
2018-12-29T13:45:37.486Z,32.50
2018-12-29T13:48:03.524Z,32.50
2018-12-29T13:50:29.570Z,32.60
2018-12-29T13:52:55.630Z,32.60
2018-12-29T13:55:21.687Z,33.00
2018-12-29T13:57:47.744Z,32.60
2018-12-29T14:00:13.797Z,32.60
2018-12-29T14:02:39.890Z,32.70
2018-12-29T14:05:05.941Z,32.60
2018-12-29T14:07:32.012Z,32.70
2018-12-29T14:09:58.069Z,32.70
2018-12-29T14:12:25.100Z,32.70
2018-12-29T14:14:51.044Z,32.80
2018-12-29T14:17:18.061Z,33.40
2018-12-29T14:19:44.716Z,32.60
2018-12-29T14:22:10.772Z,32.80
2018-12-29T14:24:36.840Z,32.70
2018-12-29T14:27:03.554Z,32.70
2018-12-29T14:29:29.500Z,32.70
2018-12-29T14:31:55.561Z,32.70
2018-12-29T14:34:21.606Z,32.60
2018-12-29T14:36:47.681Z,32.70
2018-12-29T14:39:13.736Z,32.70
2018-12-29T14:41:39.787Z,32.70
2018-12-29T14:44:05.846Z,32.60
2018-12-29T14:46:31.892Z,32.70
2018-12-29T14:48:58.002Z,32.70
2018-12-29T14:51:24.066Z,32.70
2018-12-29T14:53:50.094Z,32.70
2018-12-29T14:56:16.146Z,32.70
2018-12-29T14:58:42.088Z,32.60
2018-12-29T15:01:08.036Z,32.30
2018-12-29T15:03:34.000Z,32.70
2018-12-29T15:06:00.090Z,32.80
2018-12-29T15:08:26.156Z,32.80
2018-12-29T15:10:52.222Z,32.90
2018-12-29T15:13:18.676Z,32.90
2018-12-29T15:15:44.721Z,32.90
2018-12-29T15:18:10.750Z,32.90
2018-12-29T15:20:37.251Z,33.00
2018-12-29T15:23:03.814Z,33.00
2018-12-29T15:25:29.880Z,33.10
2018-12-29T15:27:55.944Z,33.10
2018-12-29T15:30:21.988Z,33.10
2018-12-29T15:32:48.025Z,33.10
2018-12-29T15:35:14.108Z,33.00
2018-12-29T15:37:40.167Z,33.00
2018-12-29T15:40:06.200Z,32.90
2018-12-29T15:42:32.266Z,33.60
2018-12-29T15:44:58.329Z,32.90
2018-12-29T15:47:24.398Z,32.90
2018-12-29T15:49:50.825Z,32.90
2018-12-29T15:52:16.884Z,32.80
2018-12-29T15:54:43.346Z,32.80
2018-12-29T15:57:09.846Z,32.80
2018-12-29T15:59:35.924Z,32.80
2018-12-29T16:02:01.976Z,32.70
2018-12-29T16:04:28.051Z,32.70
2018-12-29T16:06:54.111Z,32.70
2018-12-29T16:09:20.478Z,32.70
2018-12-29T16:11:46.913Z,32.70
2018-12-29T16:14:12.992Z,32.70
2018-12-29T16:16:39.324Z,32.70
2018-12-29T16:19:05.372Z,32.70
2018-12-29T16:21:31.444Z,32.80
2018-12-29T16:23:57.506Z,32.80
2018-12-29T16:26:23.553Z,32.80
2018-12-29T16:28:49.597Z,33.00
2018-12-29T16:31:15.631Z,33.00
2018-12-29T16:33:41.802Z,33.00
2018-12-29T16:36:08.204Z,33.00
2018-12-29T16:38:34.154Z,33.10
2018-12-29T16:41:00.327Z,33.10
2018-12-29T16:43:26.379Z,33.20
2018-12-29T16:45:52.452Z,33.20
2018-12-29T16:48:18.498Z,33.30
2018-12-29T16:50:44.568Z,33.30
2018-12-29T16:53:10.611Z,33.30
2018-12-29T16:55:36.734Z,33.30
2018-12-29T16:58:03.107Z,33.20
2018-12-29T17:00:29.160Z,33.10
2018-12-29T17:02:55.223Z,33.20
2018-12-29T17:05:21.280Z,33.00
2018-12-29T17:07:47.435Z,33.10
2018-12-29T17:10:13.483Z,33.10
2018-12-29T17:12:39.541Z,33.00
2018-12-29T17:15:05.992Z,33.00
2018-12-29T17:17:32.053Z,33.10
2018-12-29T17:19:58.095Z,33.00
2018-12-29T17:22:24.157Z,33.00
2018-12-29T17:24:50.193Z,32.90
2018-12-29T17:27:16.275Z,32.90
2018-12-29T17:29:42.327Z,32.90
2018-12-29T17:32:08.394Z,32.90
2018-12-29T17:34:34.447Z,33.00
2018-12-29T17:37:01.544Z,33.00
2018-12-29T17:39:27.610Z,33.10
2018-12-29T17:41:53.651Z,33.10
2018-12-29T17:44:19.693Z,33.10
2018-12-29T17:46:45.816Z,33.20
2018-12-29T17:49:11.973Z,33.20
2018-12-29T17:51:37.941Z,33.30
2018-12-29T17:54:03.984Z,33.30
2018-12-29T17:56:30.517Z,33.20
2018-12-29T17:59:07.519Z,33.30
2018-12-29T18:01:35.485Z,33.30
2018-12-29T18:04:01.559Z,34.30
2018-12-29T18:06:27.618Z,33.90
2018-12-29T18:08:54.097Z,34.10
2018-12-29T18:11:20.175Z,34.20
2018-12-29T18:13:46.217Z,34.20
2018-12-29T18:16:12.689Z,33.90
2018-12-29T18:18:39.457Z,33.80
2018-12-29T18:21:05.619Z,33.90
2018-12-29T18:23:31.998Z,33.90
2018-12-29T18:25:58.099Z,33.80
2018-12-29T18:28:24.159Z,33.80
2018-12-29T18:30:50.218Z,33.90
2018-12-29T18:33:16.503Z,33.90
2018-12-29T18:35:42.556Z,34.10
2018-12-29T18:38:08.595Z,34.30
2018-12-29T18:40:34.661Z,34.30
2018-12-29T18:43:00.745Z,34.40
2018-12-29T18:45:27.078Z,34.40
2018-12-29T18:47:53.116Z,34.50
2018-12-29T18:50:19.183Z,34.20
2018-12-29T18:52:45.240Z,34.60
2018-12-29T18:55:11.303Z,34.80
2018-12-29T18:57:37.384Z,34.90
2018-12-29T19:00:03.453Z,35.00
2018-12-29T19:02:29.529Z,35.30
2018-12-29T19:04:55.583Z,35.40
2018-12-29T19:07:22.223Z,35.50
2018-12-29T19:09:48.337Z,35.50
2018-12-29T19:12:14.394Z,35.60
2018-12-29T19:14:40.442Z,35.50
2018-12-29T19:17:06.433Z,35.40
2018-12-29T19:19:32.824Z,35.40
2018-12-29T19:21:58.849Z,35.40
2018-12-29T19:24:24.929Z,35.40
2018-12-29T19:26:51.105Z,35.70
2018-12-29T19:29:17.194Z,35.90
2018-12-29T19:31:44.661Z,35.90
2018-12-29T19:34:11.113Z,35.90
2018-12-29T19:36:37.161Z,36.10
2018-12-29T19:39:04.129Z,36.50
2018-12-29T19:41:30.157Z,36.80
2018-12-29T19:43:56.207Z,37.10
2018-12-29T19:46:22.671Z,37.30
2018-12-29T19:48:48.708Z,37.60
2018-12-29T19:51:14.755Z,37.40
2018-12-29T19:53:41.107Z,37.20
2018-12-29T19:56:07.157Z,37.10
2018-12-29T19:58:33.198Z,37.00
2018-12-29T20:00:59.269Z,37.00
2018-12-29T20:03:25.342Z,37.00
2018-12-29T20:05:51.398Z,37.00
2018-12-29T20:08:17.451Z,36.80
2018-12-29T20:10:43.522Z,36.80
2018-12-29T20:13:09.595Z,36.90
2018-12-29T20:15:35.649Z,36.90
2018-12-29T20:18:01.586Z,36.90
2018-12-29T20:20:27.652Z,36.80
2018-12-29T20:22:53.678Z,36.80
2018-12-29T20:25:19.648Z,36.80
2018-12-29T20:27:45.876Z,36.60
2018-12-29T20:30:11.828Z,36.50
2018-12-29T20:32:37.823Z,36.20
2018-12-29T20:35:03.793Z,36.00
2018-12-29T20:37:29.864Z,36.00
2018-12-29T20:39:55.909Z,36.00
2018-12-29T20:42:22.286Z,36.10
2018-12-29T20:44:48.335Z,36.10
2018-12-29T20:47:14.381Z,36.20
2018-12-29T20:49:40.364Z,36.20
2018-12-29T20:52:06.420Z,36.20
2018-12-29T20:54:32.482Z,36.20
2018-12-29T20:56:59.170Z,36.20
2018-12-29T20:59:25.525Z,36.20
2018-12-29T21:01:51.572Z,36.20
2018-12-29T21:04:17.539Z,36.20
2018-12-29T21:06:43.594Z,36.20
2018-12-29T21:09:09.654Z,36.10
2018-12-29T21:11:35.706Z,36.00
2018-12-29T21:14:01.785Z,36.60
2018-12-29T21:16:27.958Z,35.80
2018-12-29T21:18:54.038Z,35.90
2018-12-29T21:21:20.116Z,35.80
2018-12-29T21:23:46.173Z,35.80
2018-12-29T21:26:12.212Z,35.80
2018-12-29T21:28:38.288Z,35.70
2018-12-29T21:31:04.330Z,35.80
2018-12-29T21:33:30.689Z,35.70
2018-12-29T21:35:56.854Z,35.70
2018-12-29T21:38:22.889Z,35.60
2018-12-29T21:40:48.929Z,35.60
2018-12-29T21:43:15.002Z,35.60
2018-12-29T21:45:40.951Z,35.60
2018-12-29T21:48:06.924Z,35.60
2018-12-29T21:50:33.055Z,35.50
2018-12-29T21:52:59.116Z,35.50
2018-12-29T21:55:25.196Z,35.40
2018-12-29T21:57:52.126Z,35.40
2018-12-29T22:00:18.199Z,35.30
2018-12-29T22:02:44.250Z,35.40
2018-12-29T22:05:10.298Z,35.40
2018-12-29T22:07:36.485Z,35.30
2018-12-29T22:10:02.521Z,35.30
2018-12-29T22:12:28.602Z,35.50
2018-12-29T22:14:54.669Z,35.50
2018-12-29T22:17:20.720Z,35.50
2018-12-29T22:19:46.784Z,35.50
2018-12-29T22:22:12.859Z,35.60
2018-12-29T22:24:39.204Z,35.50
2018-12-29T22:27:05.239Z,35.40
2018-12-29T22:29:31.328Z,35.30
2018-12-29T22:31:57.385Z,35.30
2018-12-29T22:34:23.456Z,35.20
2018-12-29T22:36:49.516Z,35.20
2018-12-29T22:39:15.566Z,35.20
2018-12-29T22:41:42.024Z,35.10
2018-12-29T22:44:08.352Z,35.20
2018-12-29T22:46:34.424Z,35.20
2018-12-29T22:49:00.460Z,35.30
2018-12-29T22:51:26.529Z,35.50
2018-12-29T22:53:52.592Z,35.50
2018-12-29T22:56:18.652Z,35.50
2018-12-29T22:58:44.994Z,35.50
2018-12-29T23:01:11.054Z,35.50
2018-12-29T23:03:37.322Z,35.50
2018-12-29T23:06:05.275Z,35.50
2018-12-29T23:08:33.374Z,35.50
2018-12-29T23:10:59.359Z,35.50
2018-12-29T23:13:25.427Z,35.50
2018-12-29T23:15:51.487Z,35.60
2018-12-29T23:18:17.548Z,35.60
2018-12-29T23:20:48.944Z,35.70
2018-12-29T23:23:11.862Z,35.70
2018-12-29T23:25:37.910Z,35.80
2018-12-29T23:28:03.960Z,35.90
2018-12-29T23:30:30.032Z,35.90
2018-12-29T23:32:56.106Z,35.90
2018-12-29T23:35:22.158Z,35.90
2018-12-29T23:37:48.232Z,36.00
2018-12-29T23:40:14.297Z,36.00
2018-12-29T23:42:40.344Z,36.00
2018-12-29T23:45:06.409Z,36.00
2018-12-29T23:47:32.868Z,36.00
2018-12-29T23:49:58.934Z,36.00
2018-12-29T23:52:24.983Z,36.00
2018-12-29T23:54:51.023Z,36.00
2018-12-29T23:57:17.361Z,36.00
2018-12-29T23:59:43.406Z,36.00
